Terminal Aerodrome Forecast
Issued by NWS

Current Version | Previous Version | Text Only | Print | Product List | Glossary On
Versions: 1 2 3 4 5 6 7 8 9 10 11 12 13 14 15 16 17 18 19 20 21 22 23 24
000
FTUS43 KDVN 312300
TAFCID
TAF
KCID 312333Z 0100/0124 16004KT 4SM -RA BR OVC007
      TEMPO 0100/0103 2SM -RASN BR OVC005
     FM010300 10008KT 1SM -SN BR OVC004
     FM010500 08010KT 1/2SM SN FG VV003
     FM011200 06018G25KT 1SM -SN OVC004
     FM011700 04020G30KT 1SM -SN BLSN OVC004=

USA.gov is the U.S. government's official web portal to all federal, state and local government web resources and services.